Lerna, Illinois
Current Conditions -  °F | °C
As of 9:53 AM on Friday 24 Oct 2014 (Local Time) from KMTO Reporting Station
Scattered Clouds Scattered Clouds  
Wind Chill: 14°   Ceiling: Unl
Heat Index: 14°   Visibility: 10mi
Dew Point:   Wind: 0mph
Humidity: 74%   Direction: NA
Pressure: 30.1"   Gusts: NA
Location:  39.42°N, 88.29°W
Report Text: KMTO 241453Z AUTO 00000KT 10SM SCT024 14/09 A3010 RMK AO2 SLP193 T01390094 50003
Loading
Personal Weather Stations






























Interactive Weather Map
Tropical Storm Tracking
New forecast layout! Learn more

10-Day Weather Forecast

Advertisements
Track Severe Weather on mobile